sensor_id;sensor_type;location;lat;lon;timestamp;temperature;humidity
21108;DHT22;10712;52.944;9.098;2023-02-23T00:00:30;7.60;94.10
21108;DHT22;10712;52.944;9.098;2023-02-23T00:03:00;7.60;94.10
21108;DHT22;10712;52.944;9.098;2023-02-23T00:05:28;7.60;93.80
21108;DHT22;10712;52.944;9.098;2023-02-23T00:07:56;7.50;93.90
21108;DHT22;10712;52.944;9.098;2023-02-23T00:10:23;7.50;93.80
21108;DHT22;10712;52.944;9.098;2023-02-23T00:12:57;7.50;93.80
21108;DHT22;10712;52.944;9.098;2023-02-23T00:15:25;7.40;93.90
21108;DHT22;10712;52.944;9.098;2023-02-23T00:17:53;7.40;93.90
21108;DHT22;10712;52.944;9.098;2023-02-23T00:20:23;7.40;93.80
21108;DHT22;10712;52.944;9.098;2023-02-23T00:22:54;7.40;93.90
21108;DHT22;10712;52.944;9.098;2023-02-23T00:25:23;7.40;94.00
21108;DHT22;10712;52.944;9.098;2023-02-23T00:27:50;7.40;93.90
21108;DHT22;10712;52.944;9.098;2023-02-23T00:30:18;7.40;93.90
21108;DHT22;10712;52.944;9.098;2023-02-23T00:32:49;7.30;94.00
21108;DHT22;10712;52.944;9.098;2023-02-23T00:35:17;7.30;94.00
21108;DHT22;10712;52.944;9.098;2023-02-23T00:37:45;7.30;94.00
21108;DHT22;10712;52.944;9.098;2023-02-23T00:40:14;7.30;94.10
21108;DHT22;10712;52.944;9.098;2023-02-23T00:42:43;7.30;94.10
21108;DHT22;10712;52.944;9.098;2023-02-23T00:45:11;7.30;94.10
21108;DHT22;10712;52.944;9.098;2023-02-23T00:47:39;7.20;94.00
21108;DHT22;10712;52.944;9.098;2023-02-23T00:50:15;7.20;93.70
21108;DHT22;10712;52.944;9.098;2023-02-23T00:52:43;7.10;93.80
21108;DHT22;10712;52.944;9.098;2023-02-23T00:55:11;7.10;93.90
21108;DHT22;10712;52.944;9.098;2023-02-23T00:57:40;7.10;93.90
21108;DHT22;10712;52.944;9.098;2023-02-23T01:00:08;7.10;94.00
21108;DHT22;10712;52.944;9.098;2023-02-23T01:02:43;7.00;93.90
21108;DHT22;10712;52.944;9.098;2023-02-23T01:05:09;7.00;94.10
21108;DHT22;10712;52.944;9.098;2023-02-23T01:07:36;7.00;94.20
21108;DHT22;10712;52.944;9.098;2023-02-23T01:10:04;7.00;94.20
21108;DHT22;10712;52.944;9.098;2023-02-23T01:12:45;7.00;94.30
21108;DHT22;10712;52.944;9.098;2023-02-23T01:15:12;7.00;94.30
21108;DHT22;10712;52.944;9.098;2023-02-23T01:17:38;7.00;94.30
21108;DHT22;10712;52.944;9.098;2023-02-23T01:20:04;7.10;94.30
21108;DHT22;10712;52.944;9.098;2023-02-23T01:22:45;7.10;94.30
21108;DHT22;10712;52.944;9.098;2023-02-23T01:25:14;7.10;94.30
21108;DHT22;10712;52.944;9.098;2023-02-23T01:27:41;7.10;94.30
21108;DHT22;10712;52.944;9.098;2023-02-23T01:30:14;7.10;94.30
21108;DHT22;10712;52.944;9.098;2023-02-23T01:32:41;7.10;94.30
21108;DHT22;10712;52.944;9.098;2023-02-23T01:35:08;7.10;94.30
21108;DHT22;10712;52.944;9.098;2023-02-23T01:37:38;7.10;94.30
21108;DHT22;10712;52.944;9.098;2023-02-23T01:40:16;7.20;94.30
21108;DHT22;10712;52.944;9.098;2023-02-23T01:48:08;7.10;94.30
21108;DHT22;10712;52.944;9.098;2023-02-23T01:51:01;7.10;94.30
21108;DHT22;10712;52.944;9.098;2023-02-23T01:53:41;7.10;94.30
21108;DHT22;10712;52.944;9.098;2023-02-23T01:56:14;7.10;94.30
21108;DHT22;10712;52.944;9.098;2023-02-23T01:58:45;7.10;94.30
21108;DHT22;10712;52.944;9.098;2023-02-23T02:01:16;7.10;94.30
21108;DHT22;10712;52.944;9.098;2023-02-23T02:03:50;7.10;94.30
21108;DHT22;10712;52.944;9.098;2023-02-23T02:06:21;7.10;94.30
21108;DHT22;10712;52.944;9.098;2023-02-23T02:08:52;7.10;94.30
21108;DHT22;10712;52.944;9.098;2023-02-23T02:11:21;7.10;94.30
21108;DHT22;10712;52.944;9.098;2023-02-23T02:13:52;7.10;94.30
21108;DHT22;10712;52.944;9.098;2023-02-23T02:17:09;7.10;94.30
21108;DHT22;10712;52.944;9.098;2023-02-23T02:40:28;7.10;94.30
21108;DHT22;10712;52.944;9.098;2023-02-23T02:43:14;7.10;94.30
21108;DHT22;10712;52.944;9.098;2023-02-23T02:52:02;7.10;94.30
21108;DHT22;10712;52.944;9.098;2023-02-23T02:54:50;7.10;94.30
21108;DHT22;10712;52.944;9.098;2023-02-23T02:57:25;7.10;94.30
21108;DHT22;10712;52.944;9.098;2023-02-23T02:59:53;7.10;94.30
21108;DHT22;10712;52.944;9.098;2023-02-23T03:02:39;7.20;94.30
21108;DHT22;10712;52.944;9.098;2023-02-23T03:05:28;7.20;94.30
21108;DHT22;10712;52.944;9.098;2023-02-23T03:08:39;7.20;94.30
21108;DHT22;10712;52.944;9.098;2023-02-23T03:11:59;7.20;94.30
21108;DHT22;10712;52.944;9.098;2023-02-23T03:15:18;7.20;94.30
21108;DHT22;10712;52.944;9.098;2023-02-23T03:21:24;7.20;94.30
21108;DHT22;10712;52.944;9.098;2023-02-23T03:28:09;7.20;94.30
21108;DHT22;10712;52.944;9.098;2023-02-23T03:30:53;7.20;94.30
21108;DHT22;10712;52.944;9.098;2023-02-23T03:33:57;7.20;94.30
21108;DHT22;10712;52.944;9.098;2023-02-23T03:36:57;7.20;94.30
21108;DHT22;10712;52.944;9.098;2023-02-23T03:39:58;7.20;94.30
21108;DHT22;10712;52.944;9.098;2023-02-23T03:42:59;7.20;94.30
21108;DHT22;10712;52.944;9.098;2023-02-23T03:45:50;7.30;94.30
21108;DHT22;10712;52.944;9.098;2023-02-23T03:48:37;7.30;94.30
21108;DHT22;10712;52.944;9.098;2023-02-23T03:51:24;7.30;94.30
21108;DHT22;10712;52.944;9.098;2023-02-23T03:54:14;7.30;94.30
21108;DHT22;10712;52.944;9.098;2023-02-23T03:57:06;7.30;94.30
21108;DHT22;10712;52.944;9.098;2023-02-23T04:00:00;7.30;94.30
21108;DHT22;10712;52.944;9.098;2023-02-23T04:02:50;7.30;94.30
21108;DHT22;10712;52.944;9.098;2023-02-23T04:05:39;7.30;94.30
21108;DHT22;10712;52.944;9.098;2023-02-23T04:08:32;7.40;94.30
21108;DHT22;10712;52.944;9.098;2023-02-23T04:11:32;7.40;94.30
21108;DHT22;10712;52.944;9.098;2023-02-23T04:14:37;7.40;94.30
21108;DHT22;10712;52.944;9.098;2023-02-23T04:17:10;7.40;94.30
21108;DHT22;10712;52.944;9.098;2023-02-23T04:19:36;7.40;94.30
21108;DHT22;10712;52.944;9.098;2023-02-23T04:22:02;7.40;94.30
21108;DHT22;10712;52.944;9.098;2023-02-23T04:24:28;7.40;94.30
21108;DHT22;10712;52.944;9.098;2023-02-23T04:26:54;7.40;94.30
21108;DHT22;10712;52.944;9.098;2023-02-23T04:29:20;7.40;94.30
21108;DHT22;10712;52.944;9.098;2023-02-23T04:31:45;7.40;94.30
21108;DHT22;10712;52.944;9.098;2023-02-23T04:34:13;7.40;94.30
21108;DHT22;10712;52.944;9.098;2023-02-23T04:36:38;7.50;94.30
21108;DHT22;10712;52.944;9.098;2023-02-23T04:39:05;7.40;94.30
21108;DHT22;10712;52.944;9.098;2023-02-23T04:41:30;7.40;94.30
21108;DHT22;10712;52.944;9.098;2023-02-23T04:43:56;7.50;94.30
21108;DHT22;10712;52.944;9.098;2023-02-23T04:46:22;7.50;94.30
21108;DHT22;10712;52.944;9.098;2023-02-23T04:48:48;7.50;94.30
21108;DHT22;10712;52.944;9.098;2023-02-23T04:51:14;7.50;94.30
21108;DHT22;10712;52.944;9.098;2023-02-23T04:53:40;7.50;94.30
21108;DHT22;10712;52.944;9.098;2023-02-23T04:56:06;7.50;94.30
21108;DHT22;10712;52.944;9.098;2023-02-23T04:58:32;7.50;94.30
21108;DHT22;10712;52.944;9.098;2023-02-23T05:01:04;7.50;94.30
21108;DHT22;10712;52.944;9.098;2023-02-23T05:03:31;7.50;94.30
21108;DHT22;10712;52.944;9.098;2023-02-23T05:05:57;7.50;94.30
21108;DHT22;10712;52.944;9.098;2023-02-23T05:08:22;7.50;94.30
21108;DHT22;10712;52.944;9.098;2023-02-23T05:10:48;7.50;94.30
21108;DHT22;10712;52.944;9.098;2023-02-23T05:13:14;7.50;94.30
21108;DHT22;10712;52.944;9.098;2023-02-23T05:15:40;7.50;94.30
21108;DHT22;10712;52.944;9.098;2023-02-23T05:18:06;7.50;94.30
21108;DHT22;10712;52.944;9.098;2023-02-23T05:20:32;7.50;94.30
21108;DHT22;10712;52.944;9.098;2023-02-23T05:22:58;7.50;94.30
21108;DHT22;10712;52.944;9.098;2023-02-23T05:25:24;7.50;94.30
21108;DHT22;10712;52.944;9.098;2023-02-23T05:27:50;7.50;94.30
21108;DHT22;10712;52.944;9.098;2023-02-23T05:30:16;7.50;94.30
21108;DHT22;10712;52.944;9.098;2023-02-23T05:32:42;7.50;94.30
21108;DHT22;10712;52.944;9.098;2023-02-23T05:35:09;7.50;94.30
21108;DHT22;10712;52.944;9.098;2023-02-23T05:37:35;7.50;94.30
21108;DHT22;10712;52.944;9.098;2023-02-23T05:40:01;7.50;94.30
21108;DHT22;10712;52.944;9.098;2023-02-23T05:42:27;7.60;94.30
21108;DHT22;10712;52.944;9.098;2023-02-23T05:44:53;7.60;94.30
21108;DHT22;10712;52.944;9.098;2023-02-23T05:47:19;7.60;94.30
21108;DHT22;10712;52.944;9.098;2023-02-23T05:49:45;7.60;94.30
21108;DHT22;10712;52.944;9.098;2023-02-23T05:52:11;7.60;94.30
21108;DHT22;10712;52.944;9.098;2023-02-23T05:54:36;7.60;94.30
21108;DHT22;10712;52.944;9.098;2023-02-23T05:57:02;7.60;94.30
21108;DHT22;10712;52.944;9.098;2023-02-23T05:59:28;7.50;94.30
21108;DHT22;10712;52.944;9.098;2023-02-23T06:01:54;7.60;94.30
21108;DHT22;10712;52.944;9.098;2023-02-23T06:04:19;7.60;94.30
21108;DHT22;10712;52.944;9.098;2023-02-23T06:06:47;7.50;94.30
21108;DHT22;10712;52.944;9.098;2023-02-23T06:09:13;7.50;94.30
21108;DHT22;10712;52.944;9.098;2023-02-23T06:11:39;7.50;94.30
21108;DHT22;10712;52.944;9.098;2023-02-23T06:14:05;7.50;94.30
21108;DHT22;10712;52.944;9.098;2023-02-23T06:16:30;7.50;94.30
21108;DHT22;10712;52.944;9.098;2023-02-23T06:18:56;7.50;94.30
21108;DHT22;10712;52.944;9.098;2023-02-23T06:21:22;7.50;94.30
21108;DHT22;10712;52.944;9.098;2023-02-23T06:23:49;7.50;94.30
21108;DHT22;10712;52.944;9.098;2023-02-23T06:26:15;7.50;94.30
21108;DHT22;10712;52.944;9.098;2023-02-23T06:28:41;7.50;94.30
21108;DHT22;10712;52.944;9.098;2023-02-23T06:31:07;7.50;94.30
21108;DHT22;10712;52.944;9.098;2023-02-23T06:33:32;7.50;94.30
21108;DHT22;10712;52.944;9.098;2023-02-23T06:35:58;7.50;94.30
21108;DHT22;10712;52.944;9.098;2023-02-23T06:38:24;7.50;94.30
21108;DHT22;10712;52.944;9.098;2023-02-23T06:40:50;7.50;94.30
21108;DHT22;10712;52.944;9.098;2023-02-23T06:43:16;7.50;94.30
21108;DHT22;10712;52.944;9.098;2023-02-23T06:45:42;7.50;94.30
21108;DHT22;10712;52.944;9.098;2023-02-23T06:48:08;7.50;94.30
21108;DHT22;10712;52.944;9.098;2023-02-23T06:50:34;7.50;94.30
21108;DHT22;10712;52.944;9.098;2023-02-23T06:53:00;7.50;94.30
21108;DHT22;10712;52.944;9.098;2023-02-23T06:55:26;7.60;94.30
21108;DHT22;10712;52.944;9.098;2023-02-23T06:57:53;7.60;94.30
21108;DHT22;10712;52.944;9.098;2023-02-23T07:00:19;7.60;94.30
21108;DHT22;10712;52.944;9.098;2023-02-23T07:02:45;7.60;94.30
21108;DHT22;10712;52.944;9.098;2023-02-23T07:05:11;7.60;94.30
21108;DHT22;10712;52.944;9.098;2023-02-23T07:07:37;7.60;94.30
21108;DHT22;10712;52.944;9.098;2023-02-23T07:10:04;7.60;94.30
21108;DHT22;10712;52.944;9.098;2023-02-23T07:12:30;7.60;94.30
21108;DHT22;10712;52.944;9.098;2023-02-23T07:14:56;7.60;94.30
21108;DHT22;10712;52.944;9.098;2023-02-23T07:17:22;7.60;94.30
21108;DHT22;10712;52.944;9.098;2023-02-23T07:19:48;7.60;94.30
21108;DHT22;10712;52.944;9.098;2023-02-23T07:22:14;7.60;94.30
21108;DHT22;10712;52.944;9.098;2023-02-23T07:24:39;7.60;94.30
21108;DHT22;10712;52.944;9.098;2023-02-23T07:27:05;7.60;94.30
21108;DHT22;10712;52.944;9.098;2023-02-23T07:29:31;7.60;94.30
21108;DHT22;10712;52.944;9.098;2023-02-23T07:31:57;7.60;94.30
21108;DHT22;10712;52.944;9.098;2023-02-23T07:34:22;7.70;94.30
21108;DHT22;10712;52.944;9.098;2023-02-23T07:36:48;7.70;94.30
21108;DHT22;10712;52.944;9.098;2023-02-23T07:39:14;7.70;94.30
21108;DHT22;10712;52.944;9.098;2023-02-23T07:41:40;7.70;94.30
21108;DHT22;10712;52.944;9.098;2023-02-23T07:44:16;7.70;94.30
21108;DHT22;10712;52.944;9.098;2023-02-23T07:46:42;7.70;94.30
21108;DHT22;10712;52.944;9.098;2023-02-23T07:49:07;7.70;94.30
21108;DHT22;10712;52.944;9.098;2023-02-23T07:51:33;7.70;94.30
21108;DHT22;10712;52.944;9.098;2023-02-23T07:54:04;7.70;94.30
21108;DHT22;10712;52.944;9.098;2023-02-23T07:56:30;7.70;94.30
21108;DHT22;10712;52.944;9.098;2023-02-23T07:58:57;7.70;94.30
21108;DHT22;10712;52.944;9.098;2023-02-23T08:01:23;7.70;94.30
21108;DHT22;10712;52.944;9.098;2023-02-23T08:03:49;7.70;94.30
21108;DHT22;10712;52.944;9.098;2023-02-23T08:06:16;7.70;94.30
21108;DHT22;10712;52.944;9.098;2023-02-23T08:08:43;7.70;94.30
21108;DHT22;10712;52.944;9.098;2023-02-23T08:11:09;7.70;94.30
21108;DHT22;10712;52.944;9.098;2023-02-23T08:13:37;7.70;94.30
21108;DHT22;10712;52.944;9.098;2023-02-23T08:16:04;7.70;94.30
21108;DHT22;10712;52.944;9.098;2023-02-23T08:18:30;7.70;94.30
21108;DHT22;10712;52.944;9.098;2023-02-23T08:21:00;7.80;94.30
21108;DHT22;10712;52.944;9.098;2023-02-23T08:23:32;7.80;94.30
21108;DHT22;10712;52.944;9.098;2023-02-23T08:25:59;7.80;94.30
21108;DHT22;10712;52.944;9.098;2023-02-23T08:28:26;7.80;94.30
21108;DHT22;10712;52.944;9.098;2023-02-23T08:30:53;7.80;94.30
21108;DHT22;10712;52.944;9.098;2023-02-23T08:33:19;7.80;94.30
21108;DHT22;10712;52.944;9.098;2023-02-23T08:35:45;7.80;94.30
21108;DHT22;10712;52.944;9.098;2023-02-23T08:38:11;7.80;94.30
21108;DHT22;10712;52.944;9.098;2023-02-23T08:40:37;7.80;94.30
21108;DHT22;10712;52.944;9.098;2023-02-23T08:43:03;7.80;94.30
21108;DHT22;10712;52.944;9.098;2023-02-23T08:45:28;7.80;94.30
21108;DHT22;10712;52.944;9.098;2023-02-23T08:47:55;7.80;94.30
21108;DHT22;10712;52.944;9.098;2023-02-23T08:50:21;7.90;94.30
21108;DHT22;10712;52.944;9.098;2023-02-23T08:52:47;7.90;94.30
21108;DHT22;10712;52.944;9.098;2023-02-23T08:55:13;7.90;94.30
21108;DHT22;10712;52.944;9.098;2023-02-23T08:57:42;7.90;94.30
21108;DHT22;10712;52.944;9.098;2023-02-23T09:00:09;7.90;94.30
21108;DHT22;10712;52.944;9.098;2023-02-23T09:02:42;7.90;94.30
21108;DHT22;10712;52.944;9.098;2023-02-23T09:05:10;7.90;94.30
21108;DHT22;10712;52.944;9.098;2023-02-23T09:07:37;7.90;94.30
21108;DHT22;10712;52.944;9.098;2023-02-23T09:10:04;7.90;94.30
21108;DHT22;10712;52.944;9.098;2023-02-23T09:12:31;7.90;94.30
21108;DHT22;10712;52.944;9.098;2023-02-23T09:14:57;7.90;94.30
21108;DHT22;10712;52.944;9.098;2023-02-23T09:17:22;7.90;94.30
21108;DHT22;10712;52.944;9.098;2023-02-23T09:19:49;7.90;94.30
21108;DHT22;10712;52.944;9.098;2023-02-23T09:22:15;7.90;94.30
21108;DHT22;10712;52.944;9.098;2023-02-23T09:24:43;7.90;94.30
21108;DHT22;10712;52.944;9.098;2023-02-23T09:27:09;7.90;94.30
21108;DHT22;10712;52.944;9.098;2023-02-23T09:29:37;8.00;94.30
21108;DHT22;10712;52.944;9.098;2023-02-23T09:32:08;8.00;94.30
21108;DHT22;10712;52.944;9.098;2023-02-23T09:34:33;8.00;94.30
21108;DHT22;10712;52.944;9.098;2023-02-23T09:37:03;8.00;94.30
21108;DHT22;10712;52.944;9.098;2023-02-23T09:39:29;8.00;94.30
21108;DHT22;10712;52.944;9.098;2023-02-23T09:48:04;8.10;94.30
21108;DHT22;10712;52.944;9.098;2023-02-23T09:50:53;8.10;94.30
21108;DHT22;10712;52.944;9.098;2023-02-23T09:53:30;8.10;94.30
21108;DHT22;10712;52.944;9.098;2023-02-23T09:56:07;8.10;94.30
21108;DHT22;10712;52.944;9.098;2023-02-23T09:58:38;8.10;94.30
21108;DHT22;10712;52.944;9.098;2023-02-23T10:04:02;8.10;94.30
21108;DHT22;10712;52.944;9.098;2023-02-23T10:06:36;8.10;94.30
21108;DHT22;10712;52.944;9.098;2023-02-23T10:12:10;8.20;94.30
21108;DHT22;10712;52.944;9.098;2023-02-23T10:14:50;8.20;94.30
21108;DHT22;10712;52.944;9.098;2023-02-23T10:19:55;8.10;94.30
21108;DHT22;10712;52.944;9.098;2023-02-23T10:22:33;8.20;94.30
21108;DHT22;10712;52.944;9.098;2023-02-23T10:25:18;8.20;94.30
21108;DHT22;10712;52.944;9.098;2023-02-23T10:27:49;8.20;94.30
21108;DHT22;10712;52.944;9.098;2023-02-23T10:30:24;8.20;94.30
21108;DHT22;10712;52.944;9.098;2023-02-23T10:33:22;8.20;94.30
21108;DHT22;10712;52.944;9.098;2023-02-23T10:35:57;8.20;94.30
21108;DHT22;10712;52.944;9.098;2023-02-23T10:38:34;8.20;94.30
21108;DHT22;10712;52.944;9.098;2023-02-23T10:41:00;8.20;94.30
21108;DHT22;10712;52.944;9.098;2023-02-23T10:43:28;8.20;94.30
21108;DHT22;10712;52.944;9.098;2023-02-23T10:45:54;8.20;94.30
21108;DHT22;10712;52.944;9.098;2023-02-23T10:48:23;8.20;94.30
21108;DHT22;10712;52.944;9.098;2023-02-23T10:50:54;8.20;94.30
21108;DHT22;10712;52.944;9.098;2023-02-23T10:53:33;8.30;94.30
21108;DHT22;10712;52.944;9.098;2023-02-23T10:56:06;8.30;94.30
21108;DHT22;10712;52.944;9.098;2023-02-23T11:01:56;8.30;94.30
21108;DHT22;10712;52.944;9.098;2023-02-23T11:04:25;8.30;94.30
21108;DHT22;10712;52.944;9.098;2023-02-23T11:07:15;8.30;94.30
21108;DHT22;10712;52.944;9.098;2023-02-23T11:10:19;8.30;94.30
21108;DHT22;10712;52.944;9.098;2023-02-23T11:12:52;8.30;94.30
21108;DHT22;10712;52.944;9.098;2023-02-23T11:15:27;8.30;94.30
21108;DHT22;10712;52.944;9.098;2023-02-23T11:18:02;8.40;94.30
21108;DHT22;10712;52.944;9.098;2023-02-23T11:20:32;8.40;94.30
21108;DHT22;10712;52.944;9.098;2023-02-23T11:23:23;8.40;94.30
21108;DHT22;10712;52.944;9.098;2023-02-23T11:25:57;8.40;94.30
21108;DHT22;10712;52.944;9.098;2023-02-23T11:28:35;8.40;94.30
21108;DHT22;10712;52.944;9.098;2023-02-23T11:31:15;8.40;94.30
21108;DHT22;10712;52.944;9.098;2023-02-23T11:33:44;8.40;94.30
21108;DHT22;10712;52.944;9.098;2023-02-23T11:36:17;8.30;94.30
21108;DHT22;10712;52.944;9.098;2023-02-23T11:41:41;8.30;94.30
21108;DHT22;10712;52.944;9.098;2023-02-23T11:44:18;8.30;94.30
21108;DHT22;10712;52.944;9.098;2023-02-23T11:46:46;8.30;94.30
21108;DHT22;10712;52.944;9.098;2023-02-23T11:49:22;8.30;94.30
21108;DHT22;10712;52.944;9.098;2023-02-23T11:51:55;8.30;94.30
21108;DHT22;10712;52.944;9.098;2023-02-23T11:54:33;8.30;94.30
21108;DHT22;10712;52.944;9.098;2023-02-23T11:57:00;8.30;94.30
21108;DHT22;10712;52.944;9.098;2023-02-23T11:59:37;8.30;94.30
21108;DHT22;10712;52.944;9.098;2023-02-23T12:02:25;8.30;94.30
21108;DHT22;10712;52.944;9.098;2023-02-23T12:05:16;8.30;94.30
21108;DHT22;10712;52.944;9.098;2023-02-23T12:07:52;8.30;94.30
21108;DHT22;10712;52.944;9.098;2023-02-23T12:10:31;8.30;94.30
21108;DHT22;10712;52.944;9.098;2023-02-23T12:13:30;8.30;94.30
21108;DHT22;10712;52.944;9.098;2023-02-23T12:16:19;8.30;94.30
21108;DHT22;10712;52.944;9.098;2023-02-23T12:19:03;8.30;94.30
21108;DHT22;10712;52.944;9.098;2023-02-23T12:21:40;8.30;94.30
21108;DHT22;10712;52.944;9.098;2023-02-23T12:27:34;8.30;94.30
21108;DHT22;10712;52.944;9.098;2023-02-23T12:33:10;8.30;94.30
21108;DHT22;10712;52.944;9.098;2023-02-23T12:35:58;8.30;94.30
21108;DHT22;10712;52.944;9.098;2023-02-23T12:38:47;8.30;94.30
21108;DHT22;10712;52.944;9.098;2023-02-23T12:44:19;8.20;94.30
21108;DHT22;10712;52.944;9.098;2023-02-23T12:47:00;8.20;94.30
21108;DHT22;10712;52.944;9.098;2023-02-23T12:49:45;8.20;94.30
21108;DHT22;10712;52.944;9.098;2023-02-23T12:52:27;8.20;94.30
21108;DHT22;10712;52.944;9.098;2023-02-23T12:54:56;8.10;94.30
21108;DHT22;10712;52.944;9.098;2023-02-23T12:57:36;8.10;94.30
21108;DHT22;10712;52.944;9.098;2023-02-23T13:03:32;8.10;94.30
21108;DHT22;10712;52.944;9.098;2023-02-23T13:06:27;8.10;94.30
21108;DHT22;10712;52.944;9.098;2023-02-23T13:18:22;8.00;94.30
21108;DHT22;10712;52.944;9.098;2023-02-23T13:26:43;8.00;94.30
21108;DHT22;10712;52.944;9.098;2023-02-23T13:29:33;7.90;94.30
21108;DHT22;10712;52.944;9.098;2023-02-23T13:32:04;7.90;94.30
21108;DHT22;10712;52.944;9.098;2023-02-23T13:35:01;7.90;94.30
21108;DHT22;10712;52.944;9.098;2023-02-23T13:37:35;7.80;94.30
21108;DHT22;10712;52.944;9.098;2023-02-23T13:43:23;7.80;94.30
21108;DHT22;10712;52.944;9.098;2023-02-23T13:49:01;7.70;94.30
21108;DHT22;10712;52.944;9.098;2023-02-23T13:51:50;7.70;94.30
21108;DHT22;10712;52.944;9.098;2023-02-23T13:54:30;7.60;94.30
21108;DHT22;10712;52.944;9.098;2023-02-23T13:56:59;7.60;94.30
21108;DHT22;10712;52.944;9.098;2023-02-23T13:59:29;7.50;94.30
21108;DHT22;10712;52.944;9.098;2023-02-23T14:02:21;7.40;94.30
21108;DHT22;10712;52.944;9.098;2023-02-23T14:08:00;7.40;94.30
21108;DHT22;10712;52.944;9.098;2023-02-23T14:10:40;7.30;94.30
21108;DHT22;10712;52.944;9.098;2023-02-23T14:18:27;7.30;94.30
21108;DHT22;10712;52.944;9.098;2023-02-23T14:21:15;7.30;94.30
21108;DHT22;10712;52.944;9.098;2023-02-23T14:24:02;7.30;94.30
21108;DHT22;10712;52.944;9.098;2023-02-23T14:26:43;7.30;94.30
21108;DHT22;10712;52.944;9.098;2023-02-23T14:29:30;7.30;94.30
21108;DHT22;10712;52.944;9.098;2023-02-23T14:34:51;7.40;94.30
21108;DHT22;10712;52.944;9.098;2023-02-23T14:37:35;7.30;94.30
21108;DHT22;10712;52.944;9.098;2023-02-23T14:40:20;7.40;94.30
21108;DHT22;10712;52.944;9.098;2023-02-23T14:42:57;7.40;94.30
21108;DHT22;10712;52.944;9.098;2023-02-23T14:45:28;7.40;94.30
21108;DHT22;10712;52.944;9.098;2023-02-23T14:48:02;7.40;94.30
21108;DHT22;10712;52.944;9.098;2023-02-23T14:50:33;7.50;94.30
21108;DHT22;10712;52.944;9.098;2023-02-23T14:53:02;7.50;94.30
21108;DHT22;10712;52.944;9.098;2023-02-23T14:55:32;7.50;94.30
21108;DHT22;10712;52.944;9.098;2023-02-23T14:58:03;7.50;94.30
21108;DHT22;10712;52.944;9.098;2023-02-23T15:00:47;7.50;94.30
21108;DHT22;10712;52.944;9.098;2023-02-23T15:03:16;7.50;94.30
21108;DHT22;10712;52.944;9.098;2023-02-23T15:05:50;7.50;94.30
21108;DHT22;10712;52.944;9.098;2023-02-23T15:08:22;7.50;94.30
21108;DHT22;10712;52.944;9.098;2023-02-23T15:10:57;7.60;94.30
21108;DHT22;10712;52.944;9.098;2023-02-23T15:13:48;7.60;94.30
21108;DHT22;10712;52.944;9.098;2023-02-23T15:16:32;7.60;94.30
21108;DHT22;10712;52.944;9.098;2023-02-23T15:19:00;7.60;94.30
21108;DHT22;10712;52.944;9.098;2023-02-23T15:21:29;7.60;94.30
21108;DHT22;10712;52.944;9.098;2023-02-23T15:24:05;7.60;94.30
21108;DHT22;10712;52.944;9.098;2023-02-23T15:26:37;7.70;94.30
21108;DHT22;10712;52.944;9.098;2023-02-23T15:31:38;7.70;94.30
21108;DHT22;10712;52.944;9.098;2023-02-23T15:34:15;7.70;94.30
21108;DHT22;10712;52.944;9.098;2023-02-23T15:36:56;7.70;94.30
21108;DHT22;10712;52.944;9.098;2023-02-23T15:39:42;7.70;94.30
21108;DHT22;10712;52.944;9.098;2023-02-23T15:42:38;7.70;94.30
21108;DHT22;10712;52.944;9.098;2023-02-23T15:45:23;7.70;94.30
21108;DHT22;10712;52.944;9.098;2023-02-23T15:47:53;7.70;94.30
21108;DHT22;10712;52.944;9.098;2023-02-23T15:50:26;7.70;94.30
21108;DHT22;10712;52.944;9.098;2023-02-23T15:53:00;7.70;94.30
21108;DHT22;10712;52.944;9.098;2023-02-23T15:55:32;7.70;94.30
21108;DHT22;10712;52.944;9.098;2023-02-23T15:58:15;7.70;94.30
21108;DHT22;10712;52.944;9.098;2023-02-23T16:01:17;7.70;94.30
21108;DHT22;10712;52.944;9.098;2023-02-23T16:04:15;7.70;94.30
21108;DHT22;10712;52.944;9.098;2023-02-23T16:06:52;7.70;94.30
21108;DHT22;10712;52.944;9.098;2023-02-23T16:09:36;7.70;94.30
21108;DHT22;10712;52.944;9.098;2023-02-23T16:12:17;7.70;94.30
21108;DHT22;10712;52.944;9.098;2023-02-23T16:14:51;7.60;94.30
21108;DHT22;10712;52.944;9.098;2023-02-23T16:17:43;7.60;94.30
21108;DHT22;10712;52.944;9.098;2023-02-23T16:20:42;7.60;94.30
21108;DHT22;10712;52.944;9.098;2023-02-23T16:26:28;7.60;94.30
21108;DHT22;10712;52.944;9.098;2023-02-23T16:29:01;7.60;94.30
21108;DHT22;10712;52.944;9.098;2023-02-23T16:31:41;7.60;94.30
21108;DHT22;10712;52.944;9.098;2023-02-23T16:36:49;7.60;94.30
21108;DHT22;10712;52.944;9.098;2023-02-23T16:39:19;7.60;94.30
21108;DHT22;10712;52.944;9.098;2023-02-23T16:41:47;7.60;94.30
21108;DHT22;10712;52.944;9.098;2023-02-23T16:44:18;7.60;94.30
21108;DHT22;10712;52.944;9.098;2023-02-23T16:49:22;7.50;94.30
21108;DHT22;10712;52.944;9.098;2023-02-23T16:51:48;7.50;94.30
21108;DHT22;10712;52.944;9.098;2023-02-23T16:54:15;7.40;94.30
21108;DHT22;10712;52.944;9.098;2023-02-23T16:56:40;7.40;94.30
21108;DHT22;10712;52.944;9.098;2023-02-23T16:59:07;7.30;94.30
21108;DHT22;10712;52.944;9.098;2023-02-23T17:01:39;7.20;94.30
21108;DHT22;10712;52.944;9.098;2023-02-23T17:04:10;7.10;94.30
21108;DHT22;10712;52.944;9.098;2023-02-23T17:06:40;7.00;94.30
21108;DHT22;10712;52.944;9.098;2023-02-23T17:09:11;6.90;94.30
21108;DHT22;10712;52.944;9.098;2023-02-23T17:11:39;6.80;94.30
21108;DHT22;10712;52.944;9.098;2023-02-23T17:14:05;6.70;94.30
21108;DHT22;10712;52.944;9.098;2023-02-23T17:16:31;6.60;94.30
21108;DHT22;10712;52.944;9.098;2023-02-23T17:18:57;6.40;94.30
21108;DHT22;10712;52.944;9.098;2023-02-23T17:21:24;6.30;94.30
21108;DHT22;10712;52.944;9.098;2023-02-23T17:23:51;6.20;94.30
21108;DHT22;10712;52.944;9.098;2023-02-23T17:26:22;6.20;94.30
21108;DHT22;10712;52.944;9.098;2023-02-23T17:28:49;6.10;94.30
21108;DHT22;10712;52.944;9.098;2023-02-23T17:31:17;6.00;94.30
21108;DHT22;10712;52.944;9.098;2023-02-23T17:33:44;6.00;94.30
21108;DHT22;10712;52.944;9.098;2023-02-23T17:36:13;5.90;94.00
21108;DHT22;10712;52.944;9.098;2023-02-23T17:38:40;5.80;93.60
21108;DHT22;10712;52.944;9.098;2023-02-23T17:41:16;5.80;93.00
21108;DHT22;10712;52.944;9.098;2023-02-23T17:43:43;5.70;92.30
21108;DHT22;10712;52.944;9.098;2023-02-23T17:46:11;5.70;92.50
21108;DHT22;10712;52.944;9.098;2023-02-23T17:48:37;5.70;92.60
21108;DHT22;10712;52.944;9.098;2023-02-23T17:51:09;5.60;92.70
21108;DHT22;10712;52.944;9.098;2023-02-23T17:53:37;5.60;92.30
21108;DHT22;10712;52.944;9.098;2023-02-23T17:56:04;5.60;91.90
21108;DHT22;10712;52.944;9.098;2023-02-23T17:58:31;5.60;92.00
21108;DHT22;10712;52.944;9.098;2023-02-23T18:00:59;5.60;92.20
21108;DHT22;10712;52.944;9.098;2023-02-23T18:03:30;5.60;92.30
21108;DHT22;10712;52.944;9.098;2023-02-23T18:06:05;5.50;92.30
21108;DHT22;10712;52.944;9.098;2023-02-23T18:08:36;5.60;92.40
21108;DHT22;10712;52.944;9.098;2023-02-23T18:11:03;5.50;92.20
21108;DHT22;10712;52.944;9.098;2023-02-23T18:13:30;5.50;92.20
21108;DHT22;10712;52.944;9.098;2023-02-23T18:16:06;5.50;92.10
21108;DHT22;10712;52.944;9.098;2023-02-23T18:18:34;5.50;92.10